Time;durP1;ratioP1;P1;durP2;ratioP2;P2;SDS_P1;SDS_P2;PMS_P1;PMS_P2;Temp;Humidity;BMP_temperature;BMP_pressure;BME280_temperature;BME280_humidity;BME280_pressure;Samples;Min_cycle;Max_cycle;Signal;HPM_P1;HPM_P2
2022/05/09 00:01:05;;;;;;;5.30;3.20;;;12.50;99.90;;;;;;5015141;28;20477;-74
2022/05/09 00:03:32;;;;;;;14.73;3.50;;;12.50;99.90;;;;;;5011680;28;20589;-74
2022/05/09 00:06:01;;;;;;;7.07;2.90;;;12.40;99.90;;;;;;5011797;28;20454;-74
2022/05/09 00:08:28;;;;;;;6.50;3.10;;;12.30;99.90;;;;;;5012434;28;20446;-74
2022/05/09 00:10:55;;;;;;;3.40;3.10;;;12.30;99.90;;;;;;5011878;28;20536;-74
2022/05/09 00:13:21;;;;;;;6.10;3.53;;;12.30;99.90;;;;;;5011444;28;20462;-74
2022/05/09 00:15:48;;;;;;;3.47;2.80;;;12.20;99.90;;;;;;5027828;28;20962;-74
2022/05/09 00:18:17;;;;;;;6.47;3.10;;;12.20;99.90;;;;;;5031604;28;20449;-74
2022/05/09 00:20:43;;;;;;;9.17;3.10;;;12.20;99.90;;;;;;5020037;28;20481;-74
2022/05/09 00:23:11;;;;;;;5.80;3.30;;;12.20;99.90;;;;;;5011442;28;20703;-74
2022/05/09 00:25:38;;;;;;;3.93;2.80;;;12.20;99.90;;;;;;5011474;28;21018;-74
2022/05/09 00:28:06;;;;;;;3.10;2.80;;;12.20;99.90;;;;;;5011613;28;20516;-74
2022/05/09 00:30:32;;;;;;;9.53;3.27;;;12.10;99.90;;;;;;5011290;28;20486;-74
2022/05/09 00:32:59;;;;;;;12.50;3.20;;;12.10;99.90;;;;;;5014237;28;20467;-74
2022/05/09 00:35:26;;;;;;;6.90;3.50;;;12.10;99.90;;;;;;5031126;28;20449;-74
2022/05/09 00:37:52;;;;;;;6.70;3.30;;;12.00;99.90;;;;;;5031368;28;20554;-74
2022/05/09 00:40:21;;;;;;;7.50;3.60;;;12.00;99.90;;;;;;5031330;28;20441;-75
2022/05/09 00:42:49;;;;;;;5.70;2.90;;;12.00;99.90;;;;;;5031237;28;20453;-74
2022/05/09 00:45:16;;;;;;;3.30;2.77;;;11.90;99.90;;;;;;5030502;28;20455;-75
2022/05/09 00:47:43;;;;;;;8.07;3.00;;;11.90;99.90;;;;;;5030911;28;20519;-75
2022/05/09 00:50:13;;;;;;;5.80;3.23;;;11.90;99.90;;;;;;5031139;28;20485;-75
2022/05/09 00:52:44;;;;;;;13.20;3.37;;;11.90;99.90;;;;;;5031112;28;20457;-74
2022/05/09 00:55:15;;;;;;;8.37;3.30;;;11.90;99.90;;;;;;5024472;28;20457;-74
2022/05/09 00:57:50;;;;;;;6.20;3.47;;;11.80;99.90;;;;;;5011130;28;20507;-75
2022/05/09 01:00:19;;;;;;;4.70;3.20;;;11.80;99.90;;;;;;5011498;28;20480;-74
2022/05/09 01:02:51;;;;;;;5.60;3.10;;;11.80;99.90;;;;;;5011094;28;20458;-74
2022/05/09 01:05:18;;;;;;;5.00;3.03;;;11.70;99.90;;;;;;5010876;28;20452;-75
2022/05/09 01:07:45;;;;;;;4.87;3.00;;;11.70;99.90;;;;;;5011104;28;20544;-75
2022/05/09 01:10:15;;;;;;;8.90;3.80;;;11.70;99.90;;;;;;5010711;28;20876;-74
2022/05/09 01:12:45;;;;;;;7.17;3.27;;;11.60;99.90;;;;;;5011007;28;20473;-75
2022/05/09 01:15:16;;;;;;;6.50;3.10;;;11.60;99.90;;;;;;5010748;28;20454;-74
2022/05/09 01:17:44;;;;;;;5.60;3.10;;;11.60;99.90;;;;;;5010988;28;20490;-74
2022/05/09 01:20:12;;;;;;;9.23;3.60;;;11.50;99.90;;;;;;5011010;28;20497;-75
2022/05/09 01:22:42;;;;;;;5.73;3.10;;;11.50;99.90;;;;;;5015683;28;20465;-74
2022/05/09 01:25:11;;;;;;;4.67;3.13;;;11.50;99.90;;;;;;5030451;28;20889;-75
2022/05/09 01:27:42;;;;;;;11.27;3.30;;;11.40;99.90;;;;;;5014886;28;20528;-74
2022/05/09 01:30:13;;;;;;;6.47;3.13;;;11.50;99.90;;;;;;5010770;28;20870;-75
2022/05/09 01:32:45;;;;;;;5.40;3.73;;;11.40;99.90;;;;;;5010415;28;20453;-74
2022/05/09 01:35:19;;;;;;;11.40;5.27;;;11.40;99.90;;;;;;5010370;28;20954;-74
2022/05/09 01:37:51;;;;;;;10.90;3.30;;;11.40;99.90;;;;;;5010878;28;20494;-74
2022/05/09 01:40:18;;;;;;;9.07;3.20;;;11.40;99.90;;;;;;5012001;28;20458;-75
2022/05/09 01:42:45;;;;;;;6.53;3.30;;;11.30;99.90;;;;;;5011057;28;20458;-75
2022/05/09 01:45:13;;;;;;;7.33;3.20;;;11.30;99.90;;;;;;5010219;28;20454;-75
2022/05/09 01:50:24;;;;;;;4.63;2.90;;;11.30;99.90;;;;;;5017430;28;20494;-74
2022/05/09 01:52:52;;;;;;;10.83;3.70;;;11.30;99.90;;;;;;5030572;28;20461;-74
2022/05/09 01:55:19;;;;;;;7.60;3.60;;;11.30;99.90;;;;;;5030060;28;20778;-75
2022/05/09 01:57:46;;;;;;;5.43;3.37;;;11.20;99.90;;;;;;5030533;28;20707;-74
2022/05/09 02:00:13;;;;;;;5.17;3.33;;;11.20;99.90;;;;;;5027627;28;20491;-74
2022/05/09 02:02:41;;;;;;;5.70;3.47;;;11.20;99.90;;;;;;5030422;28;20449;-74
2022/05/09 02:05:08;;;;;;;5.63;3.27;;;11.20;99.90;;;;;;5029884;28;20449;-74
2022/05/09 02:07:35;;;;;;;6.43;4.17;;;11.10;99.90;;;;;;5030495;28;20445;-74
2022/05/09 02:10:04;;;;;;;7.00;3.30;;;11.10;99.90;;;;;;5030316;28;20480;-74
2022/05/09 02:12:31;;;;;;;9.93;2.90;;;11.10;99.90;;;;;;5030396;28;20464;-74
2022/05/09 02:14:57;;;;;;;7.43;3.17;;;11.10;99.90;;;;;;5030067;28;20461;-74
2022/05/09 02:17:24;;;;;;;13.43;3.83;;;11.10;99.90;;;;;;5030453;28;20536;-74
2022/05/09 02:19:51;;;;;;;8.90;3.47;;;11.10;99.90;;;;;;5025945;28;20447;-74
2022/05/09 02:22:18;;;;;;;7.87;3.70;;;11.10;99.90;;;;;;5011876;28;20986;-74
2022/05/09 02:24:45;;;;;;;7.87;3.53;;;11.10;99.90;;;;;;5013381;28;20462;-74
2022/05/09 02:27:13;;;;;;;6.30;3.40;;;11.10;99.90;;;;;;5014553;28;20446;-74
2022/05/09 02:29:42;;;;;;;8.00;4.10;;;11.10;99.90;;;;;;5033615;28;20507;-74
2022/05/09 02:32:11;;;;;;;8.40;3.60;;;11.00;99.90;;;;;;5032287;28;20555;-74
2022/05/09 02:34:38;;;;;;;9.13;3.53;;;11.00;99.90;;;;;;5032949;28;20826;-74
2022/05/09 02:37:05;;;;;;;5.13;3.33;;;11.00;99.90;;;;;;5033466;28;20979;-74
2022/05/09 02:39:32;;;;;;;6.53;3.47;;;11.00;99.90;;;;;;5033629;28;20449;-74
2022/05/09 02:41:59;;;;;;;12.03;3.60;;;10.90;99.90;;;;;;5014729;28;20482;-74
2022/05/09 02:44:27;;;;;;;4.73;3.57;;;10.90;99.90;;;;;;5013238;28;20456;-74
2022/05/09 02:46:54;;;;;;;8.83;3.53;;;10.90;99.90;;;;;;5013715;28;21017;-74
2022/05/09 02:49:21;;;;;;;9.20;3.57;;;10.90;99.90;;;;;;5013186;28;20516;-74
2022/05/09 02:51:49;;;;;;;10.10;3.57;;;10.90;99.90;;;;;;4994518;28;20515;-74
2022/05/09 02:54:16;;;;;;;7.87;4.07;;;10.90;99.90;;;;;;4993635;28;20910;-74
2022/05/09 02:56:43;;;;;;;7.97;3.50;;;10.80;99.90;;;;;;5028963;28;20484;-74
2022/05/09 02:59:09;;;;;;;9.40;3.87;;;10.80;99.90;;;;;;5033345;28;20492;-74
2022/05/09 03:01:37;;;;;;;7.43;3.10;;;10.80;99.90;;;;;;5033007;28;21021;-74
2022/05/09 03:06:49;;;;;;;3.20;2.90;;;10.70;99.90;;;;;;5033333;28;20425;-74
2022/05/09 03:09:15;;;;;;;7.30;2.90;;;10.70;99.90;;;;;;5033117;28;20526;-74
2022/05/09 03:11:42;;;;;;;5.93;3.30;;;10.70;99.90;;;;;;5013339;28;20490;-74
2022/05/09 03:14:09;;;;;;;10.23;3.90;;;10.60;99.90;;;;;;5012785;28;20450;-74
2022/05/09 03:16:37;;;;;;;5.20;3.27;;;10.60;99.90;;;;;;5012923;28;20462;-74
2022/05/09 03:19:04;;;;;;;13.03;3.70;;;10.60;99.90;;;;;;5013118;28;20450;-74
2022/05/09 03:21:31;;;;;;;6.80;3.67;;;10.60;99.90;;;;;;5012115;28;20900;-74
2022/05/09 03:23:57;;;;;;;10.13;3.50;;;10.60;99.90;;;;;;5012695;28;20453;-74
2022/05/09 03:26:24;;;;;;;10.50;3.80;;;10.60;99.90;;;;;;5025529;28;20446;-74
2022/05/09 03:28:51;;;;;;;6.97;3.47;;;10.50;99.90;;;;;;5013301;28;20481;-74
2022/05/09 03:31:18;;;;;;;5.80;3.50;;;10.50;99.90;;;;;;5012115;28;20536;-74
2022/05/09 03:33:46;;;;;;;10.43;3.77;;;10.50;99.90;;;;;;5012680;28;20455;-74
2022/05/09 03:36:12;;;;;;;7.47;3.30;;;10.50;99.90;;;;;;5013005;28;20525;-74
2022/05/09 03:38:39;;;;;;;6.93;3.50;;;10.50;99.90;;;;;;5030509;28;20492;-71
2022/05/09 03:41:06;;;;;;;10.57;3.60;;;10.40;99.90;;;;;;5032243;28;20469;-72
2022/05/09 03:43:33;;;;;;;5.80;4.23;;;10.40;99.90;;;;;;5032285;28;20448;-72
2022/05/09 03:46:00;;;;;;;7.03;3.33;;;10.40;99.90;;;;;;5032475;28;20449;-72
2022/05/09 03:48:28;;;;;;;10.97;3.43;;;10.40;99.90;;;;;;5032330;28;20457;-71
2022/05/09 03:50:57;;;;;;;8.73;4.50;;;10.40;99.90;;;;;;5032245;28;20474;-71
2022/05/09 03:53:24;;;;;;;4.80;3.80;;;10.40;99.90;;;;;;5031426;28;20450;-72
2022/05/09 03:55:51;;;;;;;5.43;3.10;;;10.40;99.90;;;;;;5032242;28;20465;-72
2022/05/09 03:58:17;;;;;;;5.10;3.30;;;10.40;99.90;;;;;;5032411;28;20488;-71
2022/05/09 04:00:44;;;;;;;11.83;3.80;;;10.40;99.90;;;;;;5030437;28;20478;-72
2022/05/09 04:03:11;;;;;;;11.03;3.80;;;10.40;99.90;;;;;;5031542;28;20457;-72
2022/05/09 04:05:38;;;;;;;7.40;3.90;;;10.40;99.90;;;;;;5032070;28;20548;-71
2022/05/09 04:08:09;;;;;;;12.57;3.77;;;10.40;99.90;;;;;;5031936;28;20449;-71
2022/05/09 04:10:37;;;;;;;7.10;3.67;;;10.30;99.90;;;;;;5032132;28;20504;-71
2022/05/09 04:13:04;;;;;;;7.20;3.70;;;10.30;99.90;;;;;;5031972;28;20468;-71
2022/05/09 04:18:17;;;;;;;7.70;3.33;;;10.30;99.90;;;;;;5032017;28;20584;-72
2022/05/09 04:20:44;;;;;;;8.93;4.80;;;10.30;99.90;;;;;;5019993;28;20484;-72
2022/05/09 04:23:12;;;;;;;10.03;4.40;;;10.40;99.90;;;;;;5011734;28;20485;-71
2022/05/09 04:25:39;;;;;;;27.70;4.30;;;10.40;99.90;;;;;;5014444;28;20879;-71
2022/05/09 04:28:08;;;;;;;6.20;3.60;;;10.40;99.90;;;;;;5012627;28;20439;-71
2022/05/09 04:30:36;;;;;;;7.60;3.80;;;10.40;99.90;;;;;;5011148;28;20909;-72
2022/05/09 04:33:04;;;;;;;8.57;3.30;;;10.40;99.90;;;;;;5011594;28;20458;-71
2022/05/09 04:35:31;;;;;;;13.20;3.80;;;10.40;99.90;;;;;;5011543;28;20462;-72
2022/05/09 04:37:58;;;;;;;6.87;3.90;;;10.40;99.90;;;;;;5011691;28;20489;-72
2022/05/09 04:40:28;;;;;;;8.97;3.80;;;10.40;99.90;;;;;;5011144;28;20947;-72
2022/05/09 04:42:56;;;;;;;9.50;3.43;;;10.50;99.90;;;;;;5011560;28;20478;-72
2022/05/09 04:45:24;;;;;;;8.17;4.17;;;10.50;99.90;;;;;;5010384;28;20512;-72
2022/05/09 04:47:51;;;;;;;5.17;3.63;;;10.50;99.90;;;;;;5011746;28;20620;-72
2022/05/09 04:50:20;;;;;;;9.63;3.80;;;10.60;99.90;;;;;;5011965;28;20504;-72
2022/05/09 04:52:47;;;;;;;12.90;3.63;;;10.60;99.90;;;;;;5011250;28;20506;-72
2022/05/09 04:55:15;;;;;;;5.17;3.63;;;10.60;99.90;;;;;;5011249;28;20873;-72
2022/05/09 04:57:45;;;;;;;4.10;3.50;;;10.70;99.90;;;;;;5011163;28;20485;-72
2022/05/09 05:00:15;;;;;;;12.30;3.67;;;10.70;99.90;;;;;;5011499;28;20512;-72
2022/05/09 05:02:42;;;;;;;14.17;3.50;;;10.80;99.90;;;;;;5011378;28;20446;-72
2022/05/09 05:05:10;;;;;;;7.83;3.70;;;10.90;99.90;;;;;;5011116;28;20454;-72
2022/05/09 05:07:37;;;;;;;5.63;3.87;;;11.00;99.90;;;;;;5011242;28;20453;-72
2022/05/09 05:10:05;;;;;;;10.33;3.80;;;11.00;99.90;;;;;;5011603;28;20454;-72
2022/05/09 05:12:32;;;;;;;7.17;3.50;;;11.10;99.90;;;;;;5011362;28;20516;-72
2022/05/09 05:15:00;;;;;;;8.90;4.50;;;11.20;99.90;;;;;;5010558;28;20450;-72
2022/05/09 05:17:27;;;;;;;11.30;4.10;;;11.30;99.90;;;;;;5011308;28;21025;-72
2022/05/09 05:19:53;;;;;;;8.93;3.67;;;11.40;99.90;;;;;;5011255;28;20450;-72
2022/05/09 05:22:20;;;;;;;6.37;3.87;;;11.50;99.90;;;;;;5011120;28;20462;-72
2022/05/09 05:24:51;;;;;;;5.47;3.50;;;11.50;99.90;;;;;;5010585;28;20445;-72
2022/05/09 05:27:19;;;;;;;7.57;3.50;;;11.60;99.90;;;;;;5010354;28;20458;-72
2022/05/09 05:29:45;;;;;;;6.27;3.50;;;11.70;99.90;;;;;;5011082;28;20516;-72
2022/05/09 05:32:19;;;;;;;5.27;3.37;;;11.90;99.90;;;;;;5010388;28;20893;-72
2022/05/09 05:34:46;;;;;;;6.87;3.73;;;12.00;99.90;;;;;;5010451;28;20801;-72
2022/05/09 05:37:12;;;;;;;11.80;4.10;;;12.20;99.90;;;;;;5010907;28;20512;-72
2022/05/09 05:39:41;;;;;;;7.87;3.90;;;12.30;99.90;;;;;;5011310;28;20458;-72
2022/05/09 05:42:08;;;;;;;6.60;3.80;;;12.40;99.90;;;;;;5011130;28;20485;-72
2022/05/09 05:44:37;;;;;;;6.73;3.33;;;12.60;99.90;;;;;;5010436;28;20504;-72
2022/05/09 05:47:06;;;;;;;8.07;3.70;;;12.70;99.90;;;;;;5011232;28;20454;-72
2022/05/09 05:49:34;;;;;;;6.77;3.73;;;12.80;99.90;;;;;;5010533;28;20540;-72
2022/05/09 05:52:03;;;;;;;6.13;3.80;;;13.00;99.90;;;;;;5010787;28;20529;-72
2022/05/09 05:54:30;;;;;;;5.43;3.63;;;13.10;99.90;;;;;;5010332;28;20949;-72
2022/05/09 05:56:57;;;;;;;8.70;3.70;;;13.30;99.90;;;;;;5011802;28;20480;-72
2022/05/09 05:59:25;;;;;;;8.20;3.30;;;13.30;99.90;;;;;;5014374;28;20481;-72
2022/05/09 06:01:52;;;;;;;9.17;3.90;;;13.40;99.90;;;;;;5014462;28;20469;-73
2022/05/09 06:04:19;;;;;;;6.33;3.50;;;13.60;99.90;;;;;;5009701;28;20454;-74
2022/05/09 06:06:47;;;;;;;14.60;3.30;;;13.80;99.90;;;;;;5010492;28;20524;-73
2022/05/09 06:09:14;;;;;;;7.70;3.83;;;13.90;99.90;;;;;;5012085;28;20500;-73
2022/05/09 06:11:41;;;;;;;6.17;3.70;;;14.20;99.90;;;;;;5013813;28;20543;-73
2022/05/09 06:14:09;;;;;;;7.77;3.60;;;14.40;99.90;;;;;;5012648;28;20445;-73
2022/05/09 06:16:36;;;;;;;17.80;4.17;;;14.70;99.90;;;;;;5012658;28;20450;-74
2022/05/09 06:19:04;;;;;;;10.90;3.57;;;14.90;99.90;;;;;;5013801;28;20568;-74
2022/05/09 06:21:33;;;;;;;6.33;3.20;;;15.00;99.90;;;;;;5013847;28;20557;-74
2022/05/09 06:24:04;;;;;;;10.83;3.87;;;15.20;99.90;;;;;;5013323;28;20441;-73
2022/05/09 06:26:31;;;;;;;5.90;3.43;;;15.40;99.90;;;;;;5013723;28;20939;-73
2022/05/09 06:28:57;;;;;;;9.13;3.50;;;15.60;99.90;;;;;;5013666;28;20943;-73
2022/05/09 06:31:24;;;;;;;9.03;3.87;;;15.70;99.90;;;;;;5013033;28;20445;-73
2022/05/09 06:33:51;;;;;;;11.10;4.43;;;15.70;99.90;;;;;;5012601;28;20488;-73
2022/05/09 06:36:17;;;;;;;13.10;3.83;;;15.90;99.90;;;;;;5010029;28;20954;-73
2022/05/09 06:38:44;;;;;;;9.50;3.57;;;16.00;99.90;;;;;;5013463;28;20560;-74
2022/05/09 06:41:12;;;;;;;6.07;3.47;;;16.10;99.90;;;;;;5012929;28;20448;-74
2022/05/09 06:43:39;;;;;;;19.30;3.93;;;16.10;99.90;;;;;;5012885;28;20516;-74
2022/05/09 06:46:05;;;;;;;8.53;3.83;;;16.20;99.90;;;;;;5013510;28;20454;-73
2022/05/09 06:48:32;;;;;;;10.60;4.00;;;16.30;99.90;;;;;;5013901;28;20496;-73
2022/05/09 06:50:58;;;;;;;8.90;4.30;;;16.40;99.90;;;;;;5013116;28;20474;-73
2022/05/09 06:53:25;;;;;;;8.80;4.30;;;16.60;99.90;;;;;;5012495;28;20424;-73
2022/05/09 06:55:52;;;;;;;11.67;4.37;;;16.70;99.90;;;;;;5013100;28;20458;-73
2022/05/09 06:58:22;;;;;;;7.70;3.77;;;16.90;99.90;;;;;;5013578;28;20456;-73
2022/05/09 07:00:49;;;;;;;10.90;4.20;;;17.00;99.90;;;;;;5013089;28;20493;-74
2022/05/09 07:03:16;;;;;;;12.93;4.27;;;17.00;99.90;;;;;;5012607;28;20847;-73
2022/05/09 07:05:45;;;;;;;10.97;5.07;;;17.10;99.90;;;;;;5013289;28;20428;-73
2022/05/09 07:08:12;;;;;;;10.03;4.40;;;17.20;99.90;;;;;;5012286;28;21009;-73
2022/05/09 07:10:39;;;;;;;14.40;4.17;;;17.30;99.90;;;;;;5012996;28;20569;-73
2022/05/09 07:13:05;;;;;;;9.93;4.03;;;17.40;99.90;;;;;;5011725;28;21095;-73
2022/05/09 07:15:35;;;;;;;13.80;4.27;;;17.50;99.90;;;;;;5012568;28;20848;-74
2022/05/09 07:18:03;;;;;;;5.80;4.07;;;17.70;99.90;;;;;;5011417;28;20421;-74
2022/05/09 07:20:31;;;;;;;8.70;4.13;;;17.90;99.90;;;;;;5012301;28;20503;-73
2022/05/09 07:23:06;;;;;;;8.57;3.87;;;18.10;99.90;;;;;;5012008;28;20450;-73
2022/05/09 07:25:32;;;;;;;11.37;5.30;;;18.20;99.90;;;;;;5011277;28;20516;-74
2022/05/09 07:27:59;;;;;;;10.73;4.23;;;18.20;99.90;;;;;;5012893;28;20437;-73
2022/05/09 07:30:28;;;;;;;10.17;4.83;;;18.30;99.90;;;;;;5010891;28;20459;-73
2022/05/09 07:32:57;;;;;;;6.20;4.10;;;18.50;99.90;;;;;;5009685;28;20446;-73
2022/05/09 07:35:24;;;;;;;9.80;4.60;;;18.70;99.90;;;;;;5011557;28;20454;-73
2022/05/09 07:37:51;;;;;;;14.80;4.00;;;18.90;99.90;;;;;;5012058;28;20433;-74
2022/05/09 07:40:20;;;;;;;11.60;4.27;;;19.20;99.90;;;;;;5015789;28;20522;-73
2022/05/09 07:42:48;;;;;;;9.93;4.37;;;19.40;99.90;;;;;;5031969;28;20482;-73
2022/05/09 07:45:19;;;;;;;11.20;4.67;;;19.50;99.90;;;;;;5022892;28;20557;-73
2022/05/09 07:47:47;;;;;;;11.80;4.50;;;19.70;99.90;;;;;;5015905;28;20453;-73
2022/05/09 07:50:17;;;;;;;10.40;4.30;;;19.80;99.90;;;;;;5031990;28;20822;-73
2022/05/09 07:52:44;;;;;;;8.37;4.10;;;20.10;99.90;;;;;;5027606;28;20453;-73
2022/05/09 07:55:12;;;;;;;8.43;4.00;;;20.30;99.90;;;;;;5018685;28;20954;-74
2022/05/09 07:57:38;;;;;;;7.37;4.33;;;20.40;99.90;;;;;;5011995;28;20812;-73
2022/05/09 08:00:07;;;;;;;6.97;4.50;;;20.50;99.90;;;;;;5026522;28;20473;-73
2022/05/09 08:02:34;;;;;;;16.43;4.60;;;20.60;99.90;;;;;;5030945;28;20452;-73
2022/05/09 08:05:00;;;;;;;8.60;4.27;;;20.80;99.90;;;;;;5016909;28;20541;-73
2022/05/09 08:07:28;;;;;;;6.80;3.87;;;20.90;99.90;;;;;;5028521;28;20454;-73
2022/05/09 08:09:55;;;;;;;7.50;3.90;;;21.20;99.90;;;;;;5024782;28;20507;-74
2022/05/09 08:12:22;;;;;;;8.90;4.70;;;21.40;99.90;;;;;;5016163;28;20536;-74
2022/05/09 08:14:49;;;;;;;7.60;4.00;;;21.60;99.90;;;;;;5022951;28;20874;-73
2022/05/09 08:17:16;;;;;;;8.60;3.83;;;21.80;99.90;;;;;;5029291;28;20544;-74
2022/05/09 08:19:43;;;;;;;8.80;4.90;;;21.90;99.90;;;;;;5027241;28;20478;-74
2022/05/09 08:22:10;;;;;;;6.30;4.03;;;21.90;99.90;;;;;;5011834;28;20474;-73
2022/05/09 08:24:37;;;;;;;4.47;3.83;;;21.90;99.90;;;;;;5010897;28;20512;-73
2022/05/09 08:27:05;;;;;;;8.07;4.07;;;22.00;99.90;;;;;;5011513;28;20581;-73
2022/05/09 08:29:31;;;;;;;7.70;4.40;;;22.00;99.90;;;;;;5025916;28;20527;-74
2022/05/09 08:31:58;;;;;;;8.33;3.93;;;21.80;99.90;;;;;;5010521;28;21065;-73
2022/05/09 08:34:25;;;;;;;10.20;4.23;;;22.00;99.90;;;;;;5028494;28;20507;-73
2022/05/09 08:36:53;;;;;;;10.20;4.47;;;22.20;99.90;;;;;;5030548;28;20965;-73
2022/05/09 08:39:22;;;;;;;7.90;4.80;;;22.50;99.90;;;;;;5018035;28;20490;-73
2022/05/09 08:41:55;;;;;;;6.83;4.20;;;22.60;99.90;;;;;;5011468;28;20505;-74
2022/05/09 08:44:38;;;;;;;21.27;4.67;;;22.50;99.90;;;;;;5010742;28;20458;-73
2022/05/09 08:47:38;;;;;;;8.77;4.30;;;22.40;99.90;;;;;;5025215;28;20535;-73
2022/05/09 08:50:15;;;;;;;7.07;4.20;;;22.70;99.90;;;;;;5009466;28;20460;-73
2022/05/09 08:52:48;;;;;;;10.33;4.07;;;22.60;99.90;;;;;;5022776;28;20457;-74
2022/05/09 08:55:17;;;;;;;7.53;4.63;;;22.70;99.90;;;;;;5030470;28;20456;-73
2022/05/09 08:57:50;;;;;;;12.23;5.23;;;22.70;99.90;;;;;;5029956;28;20461;-73
2022/05/09 09:00:19;;;;;;;7.57;4.97;;;22.70;99.90;;;;;;4995446;28;20513;-73
2022/05/09 09:02:50;;;;;;;7.13;4.37;;;22.80;99.90;;;;;;5019055;28;20510;-73
2022/05/09 09:05:23;;;;;;;8.80;4.57;;;22.80;99.90;;;;;;5009406;28;20501;-73
2022/05/09 09:08:02;;;;;;;12.40;5.20;;;22.70;99.90;;;;;;5015544;28;20850;-73
2022/05/09 09:10:33;;;;;;;10.77;5.20;;;22.70;99.90;;;;;;5021222;28;20531;-73
2022/05/09 09:13:14;;;;;;;7.77;4.67;;;22.60;99.90;;;;;;5016179;28;20470;-73
2022/05/09 09:15:47;;;;;;;11.70;4.40;;;22.30;99.90;;;;;;5021181;28;20462;-73
2022/05/09 09:18:31;;;;;;;8.13;5.80;;;22.50;99.90;;;;;;5009413;28;20450;-73
2022/05/09 09:21:01;;;;;;;11.03;5.03;;;22.90;99.90;;;;;;5013820;28;20899;-73
2022/05/09 09:23:51;;;;;;;7.90;4.87;;;23.30;99.90;;;;;;5023637;28;20454;-73
2022/05/09 09:26:28;;;;;;;6.50;5.20;;;23.30;99.90;;;;;;5011921;28;20450;-73
2022/05/09 09:29:03;;;;;;;14.33;5.77;;;23.20;99.90;;;;;;5017566;28;20453;-73
2022/05/09 09:31:32;;;;;;;5.83;5.17;;;23.10;99.90;;;;;;5013729;28;20472;-73
2022/05/09 09:34:04;;;;;;;9.77;5.40;;;22.60;99.90;;;;;;5014194;28;20489;-73
2022/05/09 09:36:38;;;;;;;9.00;5.17;;;23.00;99.90;;;;;;5015422;28;20865;-73
2022/05/09 09:39:10;;;;;;;9.10;5.10;;;23.00;99.90;;;;;;5017067;28;20544;-73
2022/05/09 09:41:37;;;;;;;9.07;5.30;;;23.00;99.90;;;;;;5030986;28;20477;-73
2022/05/09 09:44:10;;;;;;;9.93;5.93;;;23.00;99.90;;;;;;5029017;28;20599;-73
2022/05/09 09:47:02;;;;;;;11.13;6.07;;;22.90;99.90;;;;;;5023502;28;20532;-73
2022/05/09 09:49:30;;;;;;;7.57;5.37;;;22.90;99.90;;;;;;5023765;28;20537;-73
2022/05/09 09:51:57;;;;;;;10.00;5.97;;;23.30;99.90;;;;;;5028607;28;20476;-74
2022/05/09 09:54:28;;;;;;;7.50;5.37;;;23.20;99.90;;;;;;5028795;28;20461;-73
2022/05/09 09:56:55;;;;;;;8.17;5.63;;;23.50;99.90;;;;;;5016090;28;20450;-74
2022/05/09 09:59:24;;;;;;;7.93;5.50;;;23.80;99.90;;;;;;5014443;28;20482;-74
2022/05/09 10:02:07;;;;;;;11.13;6.00;;;24.00;99.90;;;;;;5029858;28;21047;-74
2022/05/09 10:04:34;;;;;;;6.20;5.30;;;23.70;99.90;;;;;;5033779;28;20452;-74
2022/05/09 10:07:04;;;;;;;10.23;5.70;;;23.70;99.90;;;;;;5020513;28;20450;-73
2022/05/09 10:09:36;;;;;;;7.10;5.63;;;23.60;99.90;;;;;;5014734;28;20447;-74
2022/05/09 10:12:18;;;;;;;6.23;5.43;;;23.80;99.90;;;;;;5014451;28;20478;-74
2022/05/09 10:14:46;;;;;;;10.73;6.10;;;23.90;99.90;;;;;;5014169;28;20513;-73
2022/05/09 10:17:16;;;;;;;7.77;5.23;;;24.00;99.90;;;;;;5013306;28;20516;-74
2022/05/09 10:19:43;;;;;;;6.03;4.80;;;24.00;99.90;;;;;;5014289;28;20573;-74
2022/05/09 10:25:06;;;;;;;9.87;5.27;;;24.80;99.90;;;;;;5014163;28;20425;-74
2022/05/09 10:27:33;;;;;;;7.40;5.40;;;24.90;99.90;;;;;;5013931;28;20458;-74
2022/05/09 10:30:05;;;;;;;5.63;4.53;;;25.10;99.90;;;;;;5014271;28;20438;-74
2022/05/09 10:32:43;;;;;;;10.00;5.67;;;25.30;99.90;;;;;;5014505;28;20473;-74
2022/05/09 10:35:18;;;;;;;7.73;4.97;;;25.10;99.90;;;;;;5013331;28;20508;-74
2022/05/09 10:37:50;;;;;;;7.83;4.93;;;25.10;99.90;;;;;;5014492;28;20499;-74
2022/05/09 10:40:22;;;;;;;6.13;4.93;;;25.20;99.90;;;;;;5014273;28;20492;-74
2022/05/09 10:42:56;;;;;;;7.20;4.43;;;25.30;99.90;;;;;;5013877;28;20488;-74
2022/05/09 10:45:28;;;;;;;12.17;4.93;;;25.50;99.90;;;;;;5013098;28;20450;-74
2022/05/09 10:47:59;;;;;;;4.93;4.43;;;25.70;99.90;;;;;;5014362;28;20500;-74
2022/05/09 10:50:32;;;;;;;9.10;4.73;;;25.30;99.90;;;;;;5017335;28;21012;-74
2022/05/09 10:53:10;;;;;;;10.37;4.87;;;25.00;99.90;;;;;;5013874;28;20462;-74
2022/05/09 10:55:40;;;;;;;6.87;5.10;;;24.80;99.90;;;;;;5007860;28;20802;-74
2022/05/09 10:58:11;;;;;;;5.47;4.47;;;24.70;99.90;;;;;;5020266;28;20453;-73
2022/05/09 11:00:43;;;;;;;6.40;4.93;;;24.60;99.90;;;;;;5022965;28;20485;-74
2022/05/09 11:03:19;;;;;;;6.23;5.23;;;24.60;99.90;;;;;;5019051;28;20876;-74
2022/05/09 11:06:18;;;;;;;5.47;4.40;;;24.80;99.90;;;;;;5014817;28;20462;-74
2022/05/09 11:09:05;;;;;;;6.43;4.77;;;24.70;99.90;;;;;;5027358;28;20453;-73
2022/05/09 11:11:40;;;;;;;6.20;5.00;;;24.80;99.90;;;;;;5017703;28;20481;-74
2022/05/09 11:14:17;;;;;;;5.63;4.40;;;24.90;99.90;;;;;;5017470;28;20511;-74
2022/05/09 11:17:07;;;;;;;8.43;4.50;;;24.80;99.90;;;;;;5012766;28;20462;-74
2022/05/09 11:19:48;;;;;;;5.23;4.73;;;24.90;99.90;;;;;;5024737;28;20498;-74
2022/05/09 11:22:24;;;;;;;5.73;4.97;;;24.60;99.90;;;;;;5013178;28;20540;-74
2022/05/09 11:25:02;;;;;;;9.03;5.07;;;24.40;99.90;;;;;;5012580;28;20453;-73
2022/05/09 11:27:44;;;;;;;5.80;4.13;;;24.60;99.90;;;;;;5013143;28;20958;-73
2022/05/09 11:30:26;;;;;;;10.20;4.00;;;24.80;99.90;;;;;;5030059;28;20456;-73
2022/05/09 11:33:08;;;;;;;6.47;4.50;;;24.60;99.90;;;;;;5032361;28;20499;-73
2022/05/09 11:35:36;;;;;;;11.17;4.80;;;24.50;99.90;;;;;;5012365;28;20454;-73
2022/05/09 11:38:20;;;;;;;6.20;4.90;;;24.50;99.90;;;;;;5013355;28;20461;-73
2022/05/09 11:40:56;;;;;;;6.30;4.60;;;24.50;99.90;;;;;;5012790;28;20490;-73
2022/05/09 11:43:37;;;;;;;5.13;4.60;;;24.60;99.90;;;;;;5011402;28;20917;-73
2022/05/09 11:46:15;;;;;;;5.83;4.10;;;24.80;99.90;;;;;;5012897;28;21031;-73
2022/05/09 11:49:01;;;;;;;5.00;4.50;;;24.90;99.90;;;;;;5012686;28;20509;-74
2022/05/09 11:51:37;;;;;;;12.30;4.73;;;24.80;99.90;;;;;;5012820;28;20470;-74
2022/05/09 11:54:09;;;;;;;9.53;5.03;;;25.20;99.90;;;;;;5028288;28;20453;-73
2022/05/09 11:56:38;;;;;;;7.07;4.53;;;24.70;99.90;;;;;;5021500;28;20504;-74
2022/05/09 11:59:05;;;;;;;4.60;4.00;;;24.90;99.90;;;;;;5019956;28;20953;-73
2022/05/09 12:01:55;;;;;;;5.00;4.10;;;25.30;99.90;;;;;;5020481;28;20490;-74
2022/05/09 12:04:40;;;;;;;6.77;4.40;;;25.80;99.90;;;;;;5016917;28;20461;-74
2022/05/09 12:07:44;;;;;;;7.70;4.50;;;26.40;99.90;;;;;;5012429;28;20934;-74
2022/05/09 12:10:28;;;;;;;7.20;4.57;;;26.20;99.90;;;;;;5019191;28;20445;-74
2022/05/09 12:12:56;;;;;;;5.20;3.87;;;25.40;99.90;;;;;;5010681;28;20589;-74
2022/05/09 12:15:44;;;;;;;5.60;3.70;;;25.40;99.90;;;;;;5006539;28;20481;-74
2022/05/09 12:18:19;;;;;;;5.70;3.90;;;25.50;99.90;;;;;;5015387;28;20849;-72
2022/05/09 12:21:18;;;;;;;5.67;4.00;;;25.40;99.90;;;;;;5017081;28;20492;-72
2022/05/09 12:24:10;;;;;;;4.67;3.90;;;25.20;99.90;;;;;;5011533;28;20458;-72
2022/05/09 12:26:39;;;;;;;8.73;4.00;;;25.20;99.90;;;;;;5009291;28;20880;-72
2022/05/09 12:29:29;;;;;;;9.63;4.30;;;25.60;99.90;;;;;;5012232;28;20456;-72
2022/05/09 12:31:59;;;;;;;4.50;3.90;;;25.70;99.90;;;;;;5019018;28;20469;-72
2022/05/09 12:34:39;;;;;;;7.93;4.30;;;26.00;99.90;;;;;;5031031;28;20449;-72
2022/05/09 12:37:08;;;;;;;6.47;4.50;;;25.90;99.90;;;;;;5030923;28;20523;-73
2022/05/09 12:39:37;;;;;;;6.73;3.90;;;26.00;99.90;;;;;;5016441;28;20462;-73
2022/05/09 12:42:11;;;;;;;8.67;4.33;;;26.20;99.90;;;;;;5018251;28;20566;-73
2022/05/09 12:44:44;;;;;;;6.27;4.30;;;26.20;99.90;;;;;;5011020;28;20964;-73
2022/05/09 12:47:13;;;;;;;8.13;4.00;;;26.30;99.90;;;;;;5012816;28;20457;-73
2022/05/09 12:49:44;;;;;;;5.73;4.13;;;26.50;99.90;;;;;;5024804;28;20511;-73
2022/05/09 12:52:20;;;;;;;6.33;3.73;;;26.80;99.90;;;;;;5017071;28;20478;-73
2022/05/09 12:55:52;;;;;;;6.20;4.30;;;26.90;99.90;;;;;;5025708;28;20503;-72
2022/05/09 12:57:39;;;;;;;5.40;4.67;;;26.40;99.90;;;;;;5027449;28;20433;-73
2022/05/09 13:00:10;;;;;;;4.50;4.10;;;25.70;99.90;;;;;;5016215;28;20517;-73
2022/05/09 13:02:37;;;;;;;6.27;3.70;;;25.50;99.90;;;;;;5017331;28;20486;-72
2022/05/09 13:05:05;;;;;;;5.10;4.13;;;25.50;99.90;;;;;;5013082;28;20454;-73
2022/05/09 13:07:33;;;;;;;4.13;3.83;;;25.80;99.90;;;;;;5015598;28;20461;-74
2022/05/09 13:10:00;;;;;;;8.53;4.17;;;26.40;99.90;;;;;;5012247;28;20458;-74
2022/05/09 13:12:32;;;;;;;6.63;3.93;;;26.80;99.90;;;;;;5030877;28;20512;-74